Elida V — SEMW — position and weather

sailwx.info

Track history (hours):
 
Tides and Currents Weather Stations Pressure Air Temp Water Temp Dewpoint Dewpoint Depression Visibility Wind Speed Wind Dir Waves Ship Positions

Elida V

Last reported at 2017-Nov-05 23:00 UTC. Time now 2017-Nov-22 18:35 UTC.
Position N 37°38' W 000°42'.
Warning: this ship's position is 16 days out of date.

Length 40 m; draft 4 m.

Type: Sailing vessel. MMSI: 266263000.

Date/timePositionNaut miles runAvg speedWind from/ knotsBaromVisibWave heightAir tempDewpointWater temp
2017-Nov-05 23:00N 37°38' W 000°42'0 0.0
2017-Nov-05 22:24N 37°38' W 000°42'0 0.0
2017-Nov-05 22:00N 37°38' W 000°42'0 0.0
2017-Nov-05 21:21N 37°38' W 000°42'0 0.0
2017-Nov-05 20:54N 37°38' W 000°42'0 0.0
2017-Nov-05 20:27N 37°38' W 000°42'0 0.0
2017-Nov-05 20:00N 37°38' W 000°42'0 0.0
2017-Nov-05 18:44N 37°38' W 000°42'0 0.2
2017-Nov-05 18:30N 37°38' W 000°42'2 3.2
2017-Nov-05 18:00N 37°36' W 000°42'2 4.4
2017-Nov-05 17:30N 37°35' W 000°45'2 4.5
2017-Nov-05 17:00N 37°34' W 000°47'2 3.7
2017-Nov-05 16:30N 37°34' W 000°50'3 5.2
2017-Nov-05 15:59N 37°33' W 000°53'1 1.3
2017-Nov-05 15:24N 37°33' W 000°54'  
2017-Oct-31 12:13N 35°55' W 005°18'1 4.9
2017-Oct-31 12:00N 35°54' W 005°18'1 1.1
2017-Oct-31 11:30N 35°53' W 005°19'0 0.0
2017-Oct-31 11:00N 35°53' W 005°19'0 0.0
2017-Oct-31 10:30N 35°53' W 005°19'0 0.0
2017-Oct-31 10:00N 35°53' W 005°19'0 0.0
2017-Oct-31 09:30N 35°53' W 005°19'0 0.0
2017-Oct-31 09:00N 35°53' W 005°19'0 0.0
2017-Oct-31 08:30N 35°53' W 005°19'0 0.0
2017-Oct-31 08:00N 35°53' W 005°19'0 0.0
2017-Oct-31 07:30N 35°53' W 005°19'0 0.0
2017-Oct-31 07:00N 35°53' W 005°19'0 0.0
2017-Oct-31 06:30N 35°53' W 005°19'0 0.0
2017-Oct-31 06:00N 35°53' W 005°19'0 0.0
2017-Oct-31 05:30N 35°53' W 005°19'0 0.0
2017-Oct-31 05:00N 35°53' W 005°19'0 0.0
2017-Oct-31 04:30N 35°53' W 005°19'0 0.0
2017-Oct-31 04:00N 35°53' W 005°19'0 0.0
2017-Oct-31 03:30N 35°53' W 005°19'0 0.0
2017-Oct-31 03:00N 35°53' W 005°19'0 0.0
2017-Oct-31 02:30N 35°53' W 005°19'0 0.0
2017-Oct-31 02:00N 35°53' W 005°19'0 0.0
2017-Oct-31 01:30N 35°53' W 005°19'0 0.0
2017-Oct-31 01:00N 35°53' W 005°19'0 0.0
2017-Oct-31 00:30N 35°53' W 005°19'0 0.0
2017-Oct-31 00:00N 35°53' W 005°19'0 0.0
2017-Oct-30 23:30N 35°53' W 005°19'0 0.0
2017-Oct-30 23:00N 35°53' W 005°19'0 0.0
2017-Oct-30 22:30N 35°53' W 005°19'0 0.0
2017-Oct-30 22:00N 35°53' W 005°19'0 0.0
2017-Oct-30 21:30N 35°53' W 005°19'0 0.0
2017-Oct-30 21:00N 35°53' W 005°19'0 0.0
2017-Oct-30 20:30N 35°53' W 005°19'0 0.0
2017-Oct-30 20:00N 35°53' W 005°19'0 0.0
2017-Oct-30 19:30N 35°53' W 005°19'0 0.0
2017-Oct-30 19:00N 35°53' W 005°19'0 0.0
2017-Oct-30 18:30N 35°53' W 005°19'0 0.0
2017-Oct-30 18:00N 35°53' W 005°19'0 0.0
2017-Oct-30 17:30N 35°53' W 005°19'0 0.0
2017-Oct-30 17:00N 35°53' W 005°19'0 0.0
2017-Oct-30 16:30N 35°53' W 005°19'0 0.0
2017-Oct-30 16:00N 35°53' W 005°19'0 0.0
2017-Oct-30 15:30N 35°53' W 005°19'1 1.1
2017-Oct-30 15:00N 35°54' W 005°18'1 2.3
2017-Oct-30 14:30N 35°55' W 005°18'  
Track history (hours):
 
Tides and Currents Weather Stations Pressure Air Temp Water Temp Dewpoint Dewpoint Depression Visibility Wind Speed Wind Dir Waves Ship Positions

Elida V

Last reported at 2017-Nov-05 23:00 UTC. Time now 2017-Nov-22 18:35 UTC.
Position N 37°38' W 000°42'.
Warning: this ship's position is 16 days out of date.

Length 40 m; draft 4 m.

Type: Sailing vessel. MMSI: 266263000.

Date/timePositionNaut miles runAvg speedWind from/ knotsBaromVisibWave heightAir tempDewpointWater temp
2017-Nov-05 23:00N 37°38' W 000°42'0 0.0
2017-Nov-05 22:24N 37°38' W 000°42'0 0.0
2017-Nov-05 22:00N 37°38' W 000°42'0 0.0
2017-Nov-05 21:21N 37°38' W 000°42'0 0.0
2017-Nov-05 20:54N 37°38' W 000°42'0 0.0
2017-Nov-05 20:27N 37°38' W 000°42'0 0.0
2017-Nov-05 20:00N 37°38' W 000°42'0 0.0
2017-Nov-05 18:44N 37°38' W 000°42'0 0.2
2017-Nov-05 18:30N 37°38' W 000°42'2 3.2
2017-Nov-05 18:00N 37°36' W 000°42'2 4.4
2017-Nov-05 17:30N 37°35' W 000°45'2 4.5
2017-Nov-05 17:00N 37°34' W 000°47'2 3.7
2017-Nov-05 16:30N 37°34' W 000°50'3 5.2
2017-Nov-05 15:59N 37°33' W 000°53'1 1.3
2017-Nov-05 15:24N 37°33' W 000°54'  
2017-Oct-31 12:13N 35°55' W 005°18'1 4.9
2017-Oct-31 12:00N 35°54' W 005°18'1 1.1
2017-Oct-31 11:30N 35°53' W 005°19'0 0.0
2017-Oct-31 11:00N 35°53' W 005°19'0 0.0
2017-Oct-31 10:30N 35°53' W 005°19'0 0.0
2017-Oct-31 10:00N 35°53' W 005°19'0 0.0
2017-Oct-31 09:30N 35°53' W 005°19'0 0.0
2017-Oct-31 09:00N 35°53' W 005°19'0 0.0
2017-Oct-31 08:30N 35°53' W 005°19'0 0.0
2017-Oct-31 08:00N 35°53' W 005°19'0 0.0
2017-Oct-31 07:30N 35°53' W 005°19'0 0.0
2017-Oct-31 07:00N 35°53' W 005°19'0 0.0
2017-Oct-31 06:30N 35°53' W 005°19'0 0.0
2017-Oct-31 06:00N 35°53' W 005°19'0 0.0
2017-Oct-31 05:30N 35°53' W 005°19'0 0.0
2017-Oct-31 05:00N 35°53' W 005°19'0 0.0
2017-Oct-31 04:30N 35°53' W 005°19'0 0.0
2017-Oct-31 04:00N 35°53' W 005°19'0 0.0
2017-Oct-31 03:30N 35°53' W 005°19'0 0.0
2017-Oct-31 03:00N 35°53' W 005°19'0 0.0
2017-Oct-31 02:30N 35°53' W 005°19'0 0.0
2017-Oct-31 02:00N 35°53' W 005°19'0 0.0
2017-Oct-31 01:30N 35°53' W 005°19'0 0.0
2017-Oct-31 01:00N 35°53' W 005°19'0 0.0
2017-Oct-31 00:30N 35°53' W 005°19'0 0.0
2017-Oct-31 00:00N 35°53' W 005°19'0 0.0
2017-Oct-30 23:30N 35°53' W 005°19'0 0.0
2017-Oct-30 23:00N 35°53' W 005°19'0 0.0
2017-Oct-30 22:30N 35°53' W 005°19'0 0.0
2017-Oct-30 22:00N 35°53' W 005°19'0 0.0
2017-Oct-30 21:30N 35°53' W 005°19'0 0.0
2017-Oct-30 21:00N 35°53' W 005°19'0 0.0
2017-Oct-30 20:30N 35°53' W 005°19'0 0.0
2017-Oct-30 20:00N 35°53' W 005°19'0 0.0
2017-Oct-30 19:30N 35°53' W 005°19'0 0.0
2017-Oct-30 19:00N 35°53' W 005°19'0 0.0
2017-Oct-30 18:30N 35°53' W 005°19'0 0.0
2017-Oct-30 18:00N 35°53' W 005°19'0 0.0
2017-Oct-30 17:30N 35°53' W 005°19'0 0.0
2017-Oct-30 17:00N 35°53' W 005°19'0 0.0
2017-Oct-30 16:30N 35°53' W 005°19'0 0.0
2017-Oct-30 16:00N 35°53' W 005°19'0 0.0
2017-Oct-30 15:30N 35°53' W 005°19'1 1.1
2017-Oct-30 15:00N 35°54' W 005°18'1 2.3
2017-Oct-30 14:30N 35°55' W 005°18'  

Dump ship's entire track history